Huvudsida
METAR-TAF:

METAR-TAF

Flygplatser :

Sundsvall Timrå Airport

Sundsvall-Härnösand, Sverige

latitud: 62-32N, longitud: 017-27E, höjd: 4 m

Aktuellt väderrapport

Denna rapport gjordes för 21 minuter sedan, klockan 04:50 UTC
Vind 5 kt från nord, varierande mellan nordväst och nord/nordost
Temperatur 0°C
Fuktighet 100%
Tryck 1034 hPa
Sikt: 7000 m

METAR: ESNN 170450Z AUTO 35005KT 310V020 7000 NCD M00/M00 Q1034

Tid: 06:11 (05:11 UTC)

Väderprognos

Denna rapport gjordes för 11 timmar och 41 minuter sedan, klockan 17:30 UTC
Prognos gäller från 16 kl. 18 UTC till 16 kl. 22 UTC
Vind 4 kt från väst/nordväst
Sikt 10 km eller mer
Inga moln under 1 500 m eller inga cumulonimbus

TAF: ESNN 161730Z 1618/1622 30004KT CAVOK

Aktuella väderrapporter och prognoser från 4000 flygplatser (METAR- och TAF-rapporter).

De tillgängliga stationerna syns som gula och röda prickar på kartan.

För musen över prickarna för att se namnen på stationerna.

Klicka sedan för att få väderrapporter och prognoser.

För att ändra kartan: Klicka på de gröna knapparna med ett svart kors på för att zooma in; den gröna knappen med ett streck på för att zooma ut; eller på de gröna pilarna för angränsande kartor.


METAR-TAF: